Time;durP1;ratioP1;P1;durP2;ratioP2;P2;SDS_P1;SDS_P2;PMS_P1;PMS_P2;Temp;Humidity;BMP_temperature;BMP_pressure;BME280_temperature;BME280_humidity;BME280_pressure;Samples;Min_cycle;Max_cycle;Signal;HPM_P1;HPM_P2
2023/06/10 00:00:52;;;;;;;0.77;0.75;;;22.40;62.20;;;;;;6211006;23;20171;-81
2023/06/10 00:03:23;;;;;;;10.73;0.70;;;22.40;62.20;;;;;;6211209;23;20175;-82
2023/06/10 00:05:52;;;;;;;0.68;0.68;;;22.40;62.80;;;;;;6211807;23;20155;-81
2023/06/10 00:08:20;;;;;;;0.57;0.57;;;22.30;63.40;;;;;;6184268;23;20507;-82
2023/06/10 00:10:50;;;;;;;3.40;1.65;;;22.30;63.40;;;;;;6210979;23;20174;-81
2023/06/10 00:13:19;;;;;;;5.05;1.08;;;22.30;63.10;;;;;;6212169;23;20512;-81
2023/06/10 00:15:48;;;;;;;2.60;1.10;;;22.30;63.50;;;;;;6211309;23;20171;-80
2023/06/10 00:18:17;;;;;;;2.15;1.45;;;22.30;63.30;;;;;;6211270;23;20574;-82
2023/06/10 00:20:48;;;;;;;2.35;1.02;;;22.20;63.70;;;;;;6210634;23;20646;-81
2023/06/10 00:23:17;;;;;;;0.98;0.93;;;22.20;64.90;;;;;;6184040;23;20175;-82
2023/06/10 00:25:46;;;;;;;1.17;0.90;;;22.10;64.70;;;;;;6210172;23;20178;-81
2023/06/10 00:28:16;;;;;;;0.65;0.65;;;22.10;65.30;;;;;;6192602;23;20198;-82
2023/06/10 00:30:45;;;;;;;1.95;1.33;;;22.10;66.00;;;;;;6211002;23;20175;-81
2023/06/10 00:33:13;;;;;;;1.23;0.70;;;22.00;66.20;;;;;;6210364;23;20572;-81
2023/06/10 00:35:42;;;;;;;0.63;0.60;;;22.00;66.30;;;;;;6209341;23;20175;-82
2023/06/10 00:38:11;;;;;;;0.45;0.45;;;22.00;66.50;;;;;;6212521;23;20220;-82
2023/06/10 00:40:41;;;;;;;1.65;0.70;;;21.90;66.60;;;;;;6210147;23;20194;-82
2023/06/10 00:43:10;;;;;;;4.15;1.00;;;21.90;66.80;;;;;;6212399;23;20669;-81
2023/06/10 00:45:40;;;;;;;1.65;0.63;;;21.80;66.90;;;;;;6213603;23;20179;-81
2023/06/10 00:48:09;;;;;;;0.60;0.60;;;21.80;66.90;;;;;;6214506;23;20310;-82
2023/06/10 00:50:39;;;;;;;3.13;1.10;;;21.70;66.90;;;;;;6214134;23;20246;-81
2023/06/10 00:53:09;;;;;;;0.70;0.43;;;21.70;66.90;;;;;;6214311;23;20656;-81
2023/06/10 00:55:38;;;;;;;0.85;0.85;;;21.70;67.00;;;;;;6213289;23;20186;-81
2023/06/10 00:58:44;;;;;;;0.47;0.47;;;21.60;67.20;;;;;;6210804;23;20175;-83
2023/06/10 01:04:37;;;;;;;0.60;0.60;;;21.60;68.10;;;;;;6214530;23;20158;-81
2023/06/10 01:07:28;;;;;;;1.05;0.95;;;21.60;68.10;;;;;;6214223;23;20266;-81
2023/06/10 01:10:03;;;;;;;0.63;0.63;;;21.50;68.20;;;;;;6213986;23;20171;-81
2023/06/10 01:12:40;;;;;;;1.23;1.13;;;21.60;68.40;;;;;;6213468;23;20162;-81
2023/06/10 01:15:10;;;;;;;1.63;0.88;;;21.50;68.40;;;;;;6213330;23;20159;-81
2023/06/10 01:17:58;;;;;;;4.43;1.00;;;21.50;68.60;;;;;;6213266;23;20170;-81
2023/06/10 01:20:28;;;;;;;0.52;0.52;;;21.50;68.40;;;;;;6214049;23;20263;-81
2023/06/10 01:22:58;;;;;;;2.38;1.10;;;21.40;68.50;;;;;;6213398;23;20846;-81
2023/06/10 01:25:28;;;;;;;0.68;0.43;;;21.40;68.70;;;;;;6214137;23;20171;-81
2023/06/10 01:28:05;;;;;;;1.13;0.93;;;21.40;68.60;;;;;;6213020;23;20334;-81
2023/06/10 01:30:41;;;;;;;0.95;0.77;;;21.40;68.80;;;;;;6213065;23;20640;-81
2023/06/10 01:33:12;;;;;;;1.20;0.68;;;21.30;68.80;;;;;;6212510;23;20163;-82
2023/06/10 01:35:44;;;;;;;0.60;0.60;;;21.30;69.30;;;;;;6187450;23;20225;-81
2023/06/10 01:38:16;;;;;;;1.50;1.37;;;21.30;69.60;;;;;;6212234;23;20178;-82
2023/06/10 01:40:46;;;;;;;1.05;0.65;;;21.30;69.50;;;;;;6211954;23;20685;-80
2023/06/10 01:43:14;;;;;;;0.57;0.53;;;21.20;70.60;;;;;;6211023;23;20271;-82
2023/06/10 01:45:43;;;;;;;2.10;1.13;;;21.20;70.10;;;;;;6213632;23;20222;-82
2023/06/10 01:48:11;;;;;;;0.80;0.80;;;21.20;70.10;;;;;;6212389;23;20171;-82
2023/06/10 01:50:40;;;;;;;0.88;0.85;;;21.20;70.20;;;;;;6211778;23;20171;-82
2023/06/10 01:53:08;;;;;;;1.37;1.03;;;21.20;70.40;;;;;;6211653;23;20696;-82
2023/06/10 01:55:38;;;;;;;3.47;1.50;;;21.20;70.40;;;;;;6213557;23;20171;-81
2023/06/10 01:58:06;;;;;;;0.90;0.60;;;21.10;70.50;;;;;;6213018;23;20179;-81
2023/06/10 02:00:35;;;;;;;2.00;0.77;;;21.10;71.10;;;;;;6214169;23;20722;-81
2023/06/10 02:03:03;;;;;;;1.83;0.87;;;21.10;71.30;;;;;;6186533;23;20238;-82
2023/06/10 02:05:32;;;;;;;2.20;1.10;;;21.00;71.60;;;;;;6214142;23;20624;-81
2023/06/10 02:08:01;;;;;;;0.70;0.60;;;21.10;72.00;;;;;;6212991;23;20175;-81
2023/06/10 02:10:29;;;;;;;3.97;1.57;;;21.00;71.90;;;;;;6212203;23;20179;-81
2023/06/10 02:12:59;;;;;;;1.03;0.80;;;21.00;72.00;;;;;;6212668;23;20226;-81
2023/06/10 02:15:28;;;;;;;0.70;0.63;;;21.00;72.50;;;;;;6212429;23;20849;-81
2023/06/10 02:17:56;;;;;;;1.40;0.83;;;21.00;72.50;;;;;;6212353;23;20171;-81
2023/06/10 02:20:25;;;;;;;1.58;1.13;;;21.00;72.90;;;;;;6213288;23;20285;-82
2023/06/10 02:22:53;;;;;;;1.42;0.65;;;21.00;73.20;;;;;;6211605;23;20505;-81
2023/06/10 02:25:21;;;;;;;1.42;1.02;;;20.90;73.50;;;;;;6211669;23;20167;-83
2023/06/10 02:27:50;;;;;;;2.28;1.25;;;21.00;73.50;;;;;;6212205;23;20195;-81
2023/06/10 02:30:20;;;;;;;1.20;0.77;;;20.90;73.30;;;;;;6211232;23;20171;-81
2023/06/10 02:32:48;;;;;;;1.47;1.17;;;20.90;73.30;;;;;;6212132;23;20237;-80
2023/06/10 02:35:17;;;;;;;0.60;0.60;;;20.90;73.30;;;;;;6213572;23;20613;-80
2023/06/10 02:37:45;;;;;;;4.67;1.53;;;20.90;73.60;;;;;;6185690;23;20553;-81
2023/06/10 02:40:14;;;;;;;1.93;1.23;;;20.90;74.10;;;;;;6211820;23;20253;-81
2023/06/10 02:42:42;;;;;;;0.30;0.30;;;20.90;74.10;;;;;;6214013;23;20167;-81
2023/06/10 02:45:11;;;;;;;1.20;0.93;;;20.90;74.40;;;;;;6186179;23;20168;-81
2023/06/10 02:47:42;;;;;;;0.97;0.70;;;20.90;74.40;;;;;;6211332;23;20174;-81
2023/06/10 02:50:11;;;;;;;0.95;0.63;;;20.90;74.30;;;;;;6211570;23;20171;-80
2023/06/10 02:52:40;;;;;;;2.53;1.13;;;21.00;74.50;;;;;;6209915;23;20480;-81
2023/06/10 02:55:09;;;;;;;0.80;0.80;;;21.00;74.60;;;;;;6209563;23;20609;-81
2023/06/10 02:57:38;;;;;;;0.57;0.57;;;20.90;74.40;;;;;;6184147;23;20173;-81
2023/06/10 03:00:10;;;;;;;2.63;1.13;;;20.90;74.50;;;;;;6211180;23;20198;-80
2023/06/10 03:02:41;;;;;;;1.67;1.15;;;20.90;74.80;;;;;;6184205;23;20167;-81
2023/06/10 03:05:10;;;;;;;1.33;1.07;;;20.90;74.80;;;;;;6212237;23;20609;-81
2023/06/10 03:07:39;;;;;;;0.52;0.52;;;20.90;75.10;;;;;;6211905;23;20169;-82
2023/06/10 03:10:09;;;;;;;1.03;0.70;;;20.90;75.10;;;;;;6212347;23;20171;-80
2023/06/10 03:12:38;;;;;;;0.90;0.70;;;21.00;75.00;;;;;;6211057;23;20231;-81
2023/06/10 03:15:07;;;;;;;1.20;1.10;;;21.00;75.10;;;;;;6211909;23;20179;-81
2023/06/10 03:17:36;;;;;;;0.75;0.70;;;21.00;75.10;;;;;;6211155;23;20493;-84
2023/06/10 03:20:10;;;;;;;0.82;0.82;;;21.00;75.20;;;;;;6212808;23;20206;-81
2023/06/10 03:22:38;;;;;;;1.17;1.02;;;21.00;75.10;;;;;;6211799;23;20234;-81
2023/06/10 03:25:13;;;;;;;2.25;0.70;;;21.10;75.50;;;;;;6210635;23;20171;-81
2023/06/10 03:27:43;;;;;;;0.80;0.60;;;21.10;75.30;;;;;;6186749;23;20201;-81
2023/06/10 03:30:13;;;;;;;1.57;0.97;;;21.10;75.60;;;;;;6212273;23;20194;-81
2023/06/10 03:32:43;;;;;;;1.30;1.00;;;21.10;75.50;;;;;;6185029;23;20636;-81
2023/06/10 03:35:14;;;;;;;1.08;0.65;;;21.10;75.40;;;;;;6210810;23;20250;-82
2023/06/10 03:37:43;;;;;;;3.08;1.15;;;21.20;75.40;;;;;;6211009;23;20156;-82
2023/06/10 03:40:11;;;;;;;2.17;0.80;;;21.20;75.50;;;;;;6209759;23;20205;-82
2023/06/10 03:42:40;;;;;;;0.95;0.82;;;21.20;75.40;;;;;;6209489;23;20175;-81
2023/06/10 03:45:09;;;;;;;1.90;1.02;;;21.30;75.50;;;;;;6211180;23;20247;-82
2023/06/10 03:47:40;;;;;;;1.85;0.73;;;21.30;75.50;;;;;;6211010;23;20167;-82
2023/06/10 03:50:10;;;;;;;0.90;0.60;;;21.30;75.20;;;;;;6210601;23;20159;-82
2023/06/10 03:52:40;;;;;;;0.82;0.52;;;21.30;75.10;;;;;;6210722;23;20175;-82
2023/06/10 03:55:11;;;;;;;2.40;0.90;;;21.40;75.00;;;;;;6210555;23;20492;-83
2023/06/10 03:57:40;;;;;;;0.55;0.52;;;21.40;74.90;;;;;;6211881;23;20265;-84
2023/06/10 04:00:11;;;;;;;2.13;0.93;;;21.50;75.00;;;;;;6212278;23;20174;-83
2023/06/10 04:02:45;;;;;;;1.17;0.75;;;21.50;75.00;;;;;;6211482;23;20160;-83
2023/06/10 04:05:15;;;;;;;1.23;0.90;;;21.60;74.90;;;;;;6211275;23;20241;-84
2023/06/10 04:07:45;;;;;;;1.95;0.98;;;21.60;75.30;;;;;;6210527;23;20174;-82
2023/06/10 04:10:13;;;;;;;2.05;1.05;;;21.60;75.00;;;;;;6209673;23;20472;-83
2023/06/10 04:12:42;;;;;;;2.45;1.40;;;21.70;75.00;;;;;;6211340;23;20221;-84
2023/06/10 04:15:11;;;;;;;0.98;0.90;;;21.70;74.90;;;;;;6210413;23;20171;-83
2023/06/10 04:17:39;;;;;;;0.85;0.52;;;21.80;75.00;;;;;;6209645;23;20625;-83
2023/06/10 04:20:09;;;;;;;1.77;1.30;;;21.80;74.80;;;;;;6211070;23;20521;-83
2023/06/10 04:22:37;;;;;;;2.17;1.13;;;21.90;74.80;;;;;;6209559;23;20576;-82
2023/06/10 04:25:09;;;;;;;1.20;1.10;;;21.90;74.60;;;;;;6211391;23;20174;-83
2023/06/10 04:27:38;;;;;;;1.20;1.10;;;21.90;74.40;;;;;;6211220;23;20659;-84
2023/06/10 04:30:08;;;;;;;0.82;0.80;;;21.90;74.50;;;;;;6212287;23;20162;-83
2023/06/10 04:32:36;;;;;;;1.83;0.98;;;21.90;74.60;;;;;;6209834;23;20250;-83
2023/06/10 04:35:06;;;;;;;0.98;0.88;;;22.00;74.50;;;;;;6210377;23;20171;-84
2023/06/10 04:37:35;;;;;;;0.98;0.75;;;22.00;74.50;;;;;;6209931;23;20217;-82
2023/06/10 04:40:05;;;;;;;1.75;1.15;;;22.00;74.30;;;;;;6210506;23;20167;-85
2023/06/10 04:42:35;;;;;;;2.22;1.15;;;22.10;74.10;;;;;;6210631;23;20187;-83
2023/06/10 04:45:03;;;;;;;2.20;1.58;;;22.10;74.00;;;;;;6210488;23;20228;-85
2023/06/10 04:47:32;;;;;;;0.50;0.50;;;22.20;73.90;;;;;;6211746;23;20167;-83
2023/06/10 04:50:02;;;;;;;0.63;0.63;;;22.20;73.90;;;;;;6210506;23;20175;-83
2023/06/10 04:52:31;;;;;;;4.40;0.90;;;22.30;73.80;;;;;;6210505;23;20176;-83
2023/06/10 04:54:59;;;;;;;0.77;0.77;;;22.30;73.80;;;;;;6209631;23;20172;-82
2023/06/10 04:57:28;;;;;;;1.67;0.95;;;22.50;73.80;;;;;;6210465;23;20676;-82
2023/06/10 04:59:58;;;;;;;2.25;0.85;;;22.50;73.70;;;;;;6209440;23;20194;-79
2023/06/10 05:02:26;;;;;;;1.33;0.77;;;22.60;73.70;;;;;;6210752;23;20195;-83
2023/06/10 05:04:54;;;;;;;1.10;0.70;;;22.60;73.70;;;;;;6208439;23;20167;-82
2023/06/10 05:07:23;;;;;;;0.75;0.75;;;22.70;73.80;;;;;;6209625;23;20175;-83
2023/06/10 05:09:51;;;;;;;1.42;0.90;;;22.80;73.60;;;;;;6209113;23;20176;-82
2023/06/10 05:12:20;;;;;;;0.98;0.50;;;22.80;73.70;;;;;;6209819;23;20231;-83
2023/06/10 05:14:48;;;;;;;4.95;1.05;;;22.90;73.60;;;;;;6211800;23;20164;-82
2023/06/10 05:17:18;;;;;;;0.90;0.60;;;22.90;73.40;;;;;;6208325;23;20492;-83
2023/06/10 05:19:47;;;;;;;1.05;0.85;;;22.90;73.30;;;;;;6211321;23;20213;-83
2023/06/10 05:22:16;;;;;;;1.35;0.93;;;23.00;73.30;;;;;;6210044;23;20514;-82
2023/06/10 05:24:44;;;;;;;1.38;1.10;;;23.10;73.40;;;;;;6211063;23;20642;-83
2023/06/10 05:27:13;;;;;;;0.77;0.60;;;23.10;73.30;;;;;;6211865;23;20173;-84
2023/06/10 05:29:41;;;;;;;4.68;1.30;;;23.20;73.20;;;;;;6211693;23;20195;-80
2023/06/10 05:32:10;;;;;;;3.45;1.83;;;23.30;73.10;;;;;;6210670;23;20183;-82
2023/06/10 05:34:40;;;;;;;0.70;0.70;;;23.30;73.10;;;;;;6214204;23;20173;-83
2023/06/10 05:37:08;;;;;;;0.73;0.63;;;23.30;73.10;;;;;;6210548;23;20217;-81
2023/06/10 05:39:38;;;;;;;5.25;1.40;;;23.40;72.90;;;;;;6212590;23;20199;-83
2023/06/10 05:42:08;;;;;;;1.63;0.93;;;23.50;72.80;;;;;;6208399;23;20248;-81
2023/06/10 05:44:36;;;;;;;5.07;1.50;;;23.50;73.60;;;;;;6213051;23;20194;-83
2023/06/10 05:47:05;;;;;;;1.38;0.82;;;23.50;72.70;;;;;;6211433;23;20159;-82
2023/06/10 05:49:34;;;;;;;0.90;0.70;;;23.60;72.50;;;;;;6211650;23;20167;-85
2023/06/10 05:52:04;;;;;;;1.35;0.93;;;23.60;72.50;;;;;;6212315;23;20175;-84
2023/06/10 05:54:33;;;;;;;0.45;0.45;;;23.70;72.50;;;;;;6213419;23;20166;-83
2023/06/10 05:57:03;;;;;;;1.73;0.90;;;23.70;72.40;;;;;;6210856;23;20193;-84
2023/06/10 05:59:31;;;;;;;3.88;1.35;;;23.70;72.20;;;;;;6211914;23;20580;-84
2023/06/10 06:02:00;;;;;;;0.45;0.45;;;23.80;71.90;;;;;;6211427;23;20195;-86
2023/06/10 06:04:28;;;;;;;7.13;1.30;;;23.90;71.80;;;;;;6212748;23;20186;-86
2023/06/10 06:06:57;;;;;;;0.70;0.70;;;23.90;71.50;;;;;;6211939;23;20194;-85
2023/06/10 06:09:27;;;;;;;0.50;0.50;;;23.90;71.20;;;;;;6210218;23;20254;-87
2023/06/10 06:11:55;;;;;;;0.57;0.50;;;24.00;71.20;;;;;;6209542;23;20620;-84
2023/06/10 06:14:33;;;;;;;0.93;0.70;;;24.00;71.10;;;;;;6211774;23;20160;-80
2023/06/10 06:17:01;;;;;;;2.00;1.45;;;24.10;70.90;;;;;;6213213;23;20156;-81
2023/06/10 06:19:29;;;;;;;0.63;0.52;;;24.10;70.80;;;;;;6212225;23;20256;-81
2023/06/10 06:21:58;;;;;;;0.75;0.65;;;24.20;70.70;;;;;;6212225;23;20652;-82
2023/06/10 06:24:27;;;;;;;0.50;0.50;;;24.30;70.70;;;;;;6212501;23;20189;-85
2023/06/10 06:26:56;;;;;;;0.63;0.63;;;24.30;70.70;;;;;;6211450;23;20182;-84
2023/06/10 06:29:24;;;;;;;0.43;0.43;;;24.40;70.50;;;;;;6212879;23;20214;-84
2023/06/10 06:31:53;;;;;;;0.93;0.63;;;24.50;70.40;;;;;;6212282;23;20214;-84
2023/06/10 06:34:21;;;;;;;0.70;0.50;;;24.50;70.20;;;;;;6212490;23;20175;-83
2023/06/10 06:36:50;;;;;;;0.75;0.28;;;24.60;70.10;;;;;;6213148;23;20164;-83
2023/06/10 06:39:18;;;;;;;0.60;0.60;;;24.70;70.00;;;;;;6213083;23;20221;-83
2023/06/10 06:41:48;;;;;;;0.95;0.50;;;24.80;69.50;;;;;;6212378;23;20202;-83
2023/06/10 06:44:16;;;;;;;1.27;0.73;;;24.90;69.20;;;;;;6214465;23;20186;-84
2023/06/10 06:46:44;;;;;;;1.20;0.60;;;25.00;69.50;;;;;;6211852;23;20174;-82
2023/06/10 06:49:13;;;;;;;0.55;0.45;;;25.10;68.90;;;;;;6213278;23;20171;-84
2023/06/10 06:51:41;;;;;;;0.60;0.60;;;25.20;68.70;;;;;;6212268;23;20175;-84
2023/06/10 06:54:11;;;;;;;0.90;0.80;;;25.20;68.60;;;;;;6212062;23;20177;-83
2023/06/10 06:56:39;;;;;;;1.25;0.82;;;25.30;68.50;;;;;;6213042;23;20225;-84
2023/06/10 06:59:09;;;;;;;2.38;0.70;;;25.40;68.30;;;;;;6212215;23;20221;-84
2023/06/10 07:01:38;;;;;;;1.35;0.80;;;25.50;68.00;;;;;;6213406;23;20186;-84
2023/06/10 07:04:06;;;;;;;0.50;0.40;;;25.60;67.60;;;;;;6212570;23;20175;-84
2023/06/10 07:06:35;;;;;;;0.85;0.70;;;25.60;67.50;;;;;;6210952;23;20178;-82
2023/06/10 07:09:06;;;;;;;0.50;0.38;;;25.70;67.50;;;;;;6210973;23;20205;-82
2023/06/10 07:11:34;;;;;;;0.70;0.55;;;25.80;67.00;;;;;;6212091;23;20178;-83
2023/06/10 07:14:03;;;;;;;0.65;0.60;;;25.90;66.70;;;;;;6212167;23;20194;-82
2023/06/10 07:16:33;;;;;;;0.57;0.57;;;25.90;66.40;;;;;;6213134;23;20171;-82
2023/06/10 07:19:01;;;;;;;5.57;0.88;;;26.00;66.40;;;;;;6213970;23;20164;-81
2023/06/10 07:21:33;;;;;;;0.93;0.73;;;26.00;66.20;;;;;;6212497;23;20186;-81
2023/06/10 07:24:02;;;;;;;0.40;0.40;;;26.10;66.20;;;;;;6212227;23;20205;-81
2023/06/10 07:26:30;;;;;;;0.40;0.40;;;26.10;65.70;;;;;;6212806;23;20170;-81
2023/06/10 07:28:59;;;;;;;2.67;0.95;;;26.10;64.80;;;;;;6212532;23;20233;-82
2023/06/10 07:31:27;;;;;;;1.95;0.90;;;26.20;64.50;;;;;;6212190;23;20206;-82
2023/06/10 07:33:57;;;;;;;0.55;0.32;;;26.20;64.20;;;;;;6212660;23;20213;-83
2023/06/10 07:36:28;;;;;;;0.65;0.60;;;26.30;64.40;;;;;;6211104;23;20700;-82
2023/06/10 07:38:56;;;;;;;2.10;0.65;;;26.30;64.30;;;;;;6212699;23;20213;-83
2023/06/10 07:41:25;;;;;;;0.80;0.70;;;26.40;64.10;;;;;;6208309;23;20163;-83
2023/06/10 07:43:55;;;;;;;2.00;0.80;;;26.40;63.70;;;;;;6210906;23;20298;-84
2023/06/10 07:46:26;;;;;;;0.52;0.43;;;26.50;63.30;;;;;;6211634;23;20655;-83
2023/06/10 07:48:57;;;;;;;1.95;0.57;;;26.50;62.90;;;;;;6212493;23;20233;-82
2023/06/10 07:51:25;;;;;;;0.55;0.50;;;26.60;62.90;;;;;;6211262;23;20177;-83
2023/06/10 07:53:53;;;;;;;0.55;0.50;;;26.60;62.80;;;;;;6213620;23;20185;-82
2023/06/10 07:56:22;;;;;;;0.73;0.68;;;26.60;62.50;;;;;;6211903;23;20171;-82
2023/06/10 07:58:50;;;;;;;2.28;0.93;;;26.70;62.40;;;;;;6211645;23;20167;-84
2023/06/10 08:01:19;;;;;;;0.47;0.47;;;26.60;62.20;;;;;;6211997;23;20209;-84
2023/06/10 08:03:47;;;;;;;0.60;0.52;;;26.70;62.30;;;;;;6210306;23;20202;-80
2023/06/10 08:06:17;;;;;;;0.93;0.77;;;26.70;61.90;;;;;;6211570;23;20167;-81
2023/06/10 08:08:46;;;;;;;2.28;1.27;;;26.70;61.90;;;;;;6210814;23;20433;-80
2023/06/10 08:11:15;;;;;;;0.70;0.70;;;26.70;61.80;;;;;;6210021;23;20587;-82
2023/06/10 08:13:43;;;;;;;0.60;0.60;;;26.70;61.70;;;;;;6213300;23;20174;-82
2023/06/10 08:16:11;;;;;;;1.52;0.65;;;26.70;61.70;;;;;;6208510;23;20249;-83
2023/06/10 08:18:40;;;;;;;0.70;0.50;;;26.70;61.80;;;;;;6212129;23;20171;-84
2023/06/10 08:21:08;;;;;;;0.40;0.40;;;26.80;61.90;;;;;;6210038;23;20167;-78
2023/06/10 08:23:38;;;;;;;0.60;0.57;;;26.80;61.90;;;;;;6212689;23;20198;-81
2023/06/10 08:26:07;;;;;;;1.13;0.57;;;26.80;61.80;;;;;;6205737;23;21046;-82
2023/06/10 08:28:35;;;;;;;0.50;0.50;;;26.80;61.80;;;;;;6211004;23;20273;-81
2023/06/10 08:31:04;;;;;;;0.70;0.40;;;26.90;61.80;;;;;;6209691;23;20514;-81
2023/06/10 08:33:32;;;;;;;11.50;1.10;;;27.00;61.70;;;;;;6210105;23;20163;-82
2023/06/10 08:36:00;;;;;;;0.38;0.38;;;27.10;61.60;;;;;;6211858;23;20174;-81
2023/06/10 08:38:29;;;;;;;1.17;0.75;;;27.10;61.50;;;;;;6208755;23;20171;-82
2023/06/10 08:41:01;;;;;;;0.85;0.70;;;27.10;61.10;;;;;;6210455;23;20193;-81
2023/06/10 08:43:34;;;;;;;1.27;0.60;;;27.20;61.20;;;;;;6210317;23;20210;-81
2023/06/10 08:46:03;;;;;;;1.70;0.50;;;27.30;61.10;;;;;;6210942;23;20163;-82
2023/06/10 08:48:35;;;;;;;1.75;1.05;;;27.30;60.90;;;;;;6210928;23;20511;-80
2023/06/10 08:51:05;;;;;;;1.20;0.80;;;27.40;60.80;;;;;;6209362;23;20246;-79
2023/06/10 08:53:37;;;;;;;0.82;0.68;;;27.40;60.50;;;;;;6212011;23;20183;-79
2023/06/10 08:56:07;;;;;;;0.47;0.47;;;27.50;60.10;;;;;;6212004;23;20244;-81
2023/06/10 08:58:41;;;;;;;2.80;1.08;;;27.50;59.90;;;;;;6214261;23;20178;-79
2023/06/10 09:01:10;;;;;;;0.75;0.60;;;27.60;59.40;;;;;;6213073;23;20218;-81
2023/06/10 09:03:39;;;;;;;4.78;0.80;;;27.70;59.20;;;;;;6212770;23;20203;-81
2023/06/10 09:06:08;;;;;;;0.75;0.60;;;27.70;58.40;;;;;;6212544;23;20178;-81
2023/06/10 09:08:37;;;;;;;1.08;0.98;;;27.80;57.80;;;;;;6210310;23;20836;-79
2023/06/10 09:11:07;;;;;;;1.80;0.90;;;27.90;57.80;;;;;;6209193;23;20688;-79
2023/06/10 09:13:36;;;;;;;0.73;0.60;;;28.00;57.10;;;;;;6214253;23;20166;-81
2023/06/10 09:16:11;;;;;;;0.95;0.63;;;28.00;57.20;;;;;;6210298;23;20601;-80
2023/06/10 09:22:48;;;;;;;0.82;0.55;;;28.20;56.90;;;;;;6030790;23;20167;-84
2023/06/10 09:25:16;;;;;;;0.73;0.65;;;28.30;54.40;;;;;;6212070;23;20171;-83
2023/06/10 09:27:50;;;;;;;2.42;0.85;;;28.40;54.60;;;;;;6213611;23;20179;-82
2023/06/10 09:30:29;;;;;;;1.48;0.80;;;28.50;55.10;;;;;;6210876;23;20171;-82
2023/06/10 09:32:59;;;;;;;0.68;0.52;;;28.60;55.10;;;;;;6212740;23;20238;-83
2023/06/10 09:35:29;;;;;;;0.98;0.90;;;28.70;53.80;;;;;;6208996;23;20178;-82
2023/06/10 09:37:59;;;;;;;1.10;0.60;;;28.80;53.90;;;;;;6212849;23;20178;-83
2023/06/10 09:40:28;;;;;;;1.40;1.00;;;28.90;53.10;;;;;;6214006;23;20167;-83
2023/06/10 09:43:00;;;;;;;1.30;0.63;;;29.00;52.90;;;;;;6213202;23;20948;-82
2023/06/10 09:45:31;;;;;;;0.82;0.40;;;29.10;52.30;;;;;;6212334;23;20164;-82
2023/06/10 09:48:01;;;;;;;4.45;0.73;;;29.30;51.80;;;;;;6212219;23;20159;-83
2023/06/10 09:50:34;;;;;;;0.50;0.50;;;29.30;51.80;;;;;;6209748;23;20175;-83
2023/06/10 09:53:03;;;;;;;0.80;0.77;;;29.40;51.40;;;;;;6213201;23;20167;-83
2023/06/10 09:55:34;;;;;;;1.02;0.68;;;29.60;51.40;;;;;;6211992;23;20174;-81
2023/06/10 09:58:05;;;;;;;4.05;0.80;;;29.70;51.50;;;;;;6211980;23;20174;-81
2023/06/10 10:00:34;;;;;;;1.15;0.70;;;29.70;51.10;;;;;;6211450;23;20171;-83
2023/06/10 10:03:03;;;;;;;0.98;0.90;;;29.80;50.80;;;;;;6213541;23;20655;-81
2023/06/10 10:05:31;;;;;;;0.85;0.60;;;29.80;49.80;;;;;;6210031;23;20647;-84
2023/06/10 10:08:00;;;;;;;1.65;0.77;;;29.90;50.40;;;;;;6212290;23;20174;-84
2023/06/10 10:18:00;;;;;;;1.92;0.90;;;29.80;49.50;;;;;;6034251;23;20626;-83
2023/06/10 10:20:52;;;;;;;2.03;0.85;;;29.80;49.60;;;;;;6119934;23;20169;-84
2023/06/10 10:24:25;;;;;;;0.45;0.43;;;29.80;49.30;;;;;;6117875;23;20189;-83
2023/06/10 10:27:17;;;;;;;0.70;0.70;;;29.90;49.70;;;;;;6057726;23;20174;-83
2023/06/10 10:29:49;;;;;;;1.52;0.88;;;29.90;49.00;;;;;;6061349;23;20271;-82
2023/06/10 10:32:19;;;;;;;2.35;1.60;;;29.80;49.20;;;;;;6175709;23;20199;-82
2023/06/10 10:34:54;;;;;;;1.98;1.10;;;29.90;49.10;;;;;;6213596;23;20167;-82
2023/06/10 10:37:23;;;;;;;0.98;0.75;;;29.90;50.20;;;;;;6212278;23;20194;-81
2023/06/10 10:39:52;;;;;;;1.80;1.33;;;29.90;49.60;;;;;;6211234;23;20167;-83
2023/06/10 10:42:20;;;;;;;1.65;1.02;;;29.90;49.20;;;;;;6212225;23;20167;-83
2023/06/10 10:44:51;;;;;;;1.55;0.80;;;29.90;49.40;;;;;;6213246;23;20198;-82
2023/06/10 10:47:23;;;;;;;1.27;0.82;;;29.90;48.80;;;;;;6209745;23;20238;-82
2023/06/10 10:49:54;;;;;;;18.63;1.27;;;29.90;49.00;;;;;;6212023;23;20190;-82
2023/06/10 10:52:22;;;;;;;1.98;1.25;;;29.90;49.00;;;;;;6211829;23;20155;-83
2023/06/10 10:54:54;;;;;;;4.85;0.90;;;29.90;49.00;;;;;;6212533;23;20174;-80
2023/06/10 10:57:24;;;;;;;2.70;1.02;;;29.90;49.20;;;;;;6210514;23;20600;-82
2023/06/10 10:59:57;;;;;;;0.60;0.60;;;29.90;49.40;;;;;;6212049;23;20175;-82
2023/06/10 11:02:38;;;;;;;0.45;0.43;;;29.90;49.60;;;;;;6211933;23;20233;-82
2023/06/10 11:05:08;;;;;;;1.95;0.95;;;29.90;49.70;;;;;;6212759;23;20195;-82
2023/06/10 11:07:38;;;;;;;0.73;0.63;;;30.00;49.60;;;;;;6212550;23;20151;-82
2023/06/10 11:10:11;;;;;;;1.27;0.77;;;30.00;49.50;;;;;;6213015;23;20167;-83
2023/06/10 11:12:49;;;;;;;0.85;0.77;;;30.00;49.30;;;;;;6211029;23;20179;-82
2023/06/10 11:15:23;;;;;;;1.60;1.05;;;30.10;49.50;;;;;;6212394;23;20161;-83
2023/06/10 11:18:12;;;;;;;1.20;1.02;;;30.10;49.20;;;;;;6211565;23;20561;-82
2023/06/10 11:20:54;;;;;;;0.77;0.77;;;30.20;49.40;;;;;;6210997;23;20166;-83
2023/06/10 11:23:43;;;;;;;4.40;1.17;;;30.30;48.50;;;;;;6211951;23;20534;-83
2023/06/10 11:26:21;;;;;;;1.70;1.23;;;30.50;48.50;;;;;;6208545;23;20164;-82
2023/06/10 11:29:11;;;;;;;2.10;1.20;;;30.50;47.30;;;;;;6211079;23;20233;-83
2023/06/10 11:31:47;;;;;;;0.98;0.95;;;30.60;47.90;;;;;;6202262;23;20171;-82
2023/06/10 11:34:16;;;;;;;1.33;0.77;;;30.70;47.10;;;;;;6211292;23;20245;-82
2023/06/10 11:36:45;;;;;;;1.60;1.02;;;30.70;46.10;;;;;;6211232;23;20509;-82
2023/06/10 11:39:14;;;;;;;5.57;1.38;;;30.80;46.30;;;;;;6211113;23;20934;-83
2023/06/10 11:41:43;;;;;;;4.03;1.23;;;30.90;45.80;;;;;;6210657;23;20171;-83
2023/06/10 11:44:12;;;;;;;0.98;0.95;;;31.00;45.90;;;;;;6210961;23;20632;-82
2023/06/10 11:46:48;;;;;;;1.48;1.13;;;31.00;45.80;;;;;;6209812;23;20186;-81
2023/06/10 11:49:17;;;;;;;0.80;0.68;;;31.10;46.30;;;;;;6207515;23;20167;-83
2023/06/10 11:51:49;;;;;;;1.55;0.85;;;31.20;46.40;;;;;;6209184;23;20163;-83
2023/06/10 11:54:18;;;;;;;2.55;1.55;;;31.30;46.10;;;;;;6213329;23;20251;-82
2023/06/10 11:56:48;;;;;;;2.70;1.63;;;31.30;46.10;;;;;;6207365;23;20182;-82
2023/06/10 11:59:16;;;;;;;1.58;1.25;;;31.40;45.70;;;;;;6211075;23;20171;-84
2023/06/10 12:01:47;;;;;;;4.35;2.35;;;31.40;45.90;;;;;;6212364;23;20173;-84
2023/06/10 12:04:17;;;;;;;0.88;0.75;;;31.50;45.60;;;;;;6211565;23;20191;-83
2023/06/10 12:06:47;;;;;;;1.65;1.20;;;31.50;45.50;;;;;;6212612;23;20361;-81
2023/06/10 12:09:21;;;;;;;16.30;1.55;;;31.50;45.70;;;;;;6212581;23;20170;-81
2023/06/10 12:11:56;;;;;;;2.25;1.35;;;31.50;45.70;;;;;;6210890;23;20159;-80
2023/06/10 12:14:54;;;;;;;1.55;1.02;;;31.60;46.10;;;;;;6208743;23;20546;-80
2023/06/10 12:17:25;;;;;;;0.82;0.82;;;31.60;45.90;;;;;;6210752;23;20287;-82
2023/06/10 12:19:53;;;;;;;1.23;0.95;;;31.70;46.20;;;;;;6208690;23;20155;-80
2023/06/10 12:22:23;;;;;;;1.45;0.82;;;31.70;46.20;;;;;;6208912;23;20167;-81
2023/06/10 12:25:03;;;;;;;1.02;0.90;;;31.80;46.10;;;;;;6211138;23;20270;-79
2023/06/10 12:27:32;;;;;;;1.10;0.90;;;31.90;45.80;;;;;;6211245;23;20670;-80
2023/06/10 12:30:03;;;;;;;0.55;0.55;;;32.00;45.90;;;;;;6208856;23;20163;-80
2023/06/10 12:32:42;;;;;;;1.20;0.90;;;32.10;45.90;;;;;;6213288;23;20824;-80
2023/06/10 12:35:13;;;;;;;1.30;1.10;;;32.20;45.90;;;;;;6214054;23;20676;-80
2023/06/10 12:37:42;;;;;;;1.20;0.85;;;32.20;45.90;;;;;;6212217;23;20160;-81
2023/06/10 12:40:12;;;;;;;4.22;1.42;;;32.20;45.70;;;;;;6209900;23;20973;-79
2023/06/10 12:42:41;;;;;;;4.05;1.45;;;32.30;45.90;;;;;;6213061;23;20189;-80
2023/06/10 12:45:11;;;;;;;1.80;0.85;;;32.40;45.70;;;;;;6211291;23;20199;-79
2023/06/10 12:47:42;;;;;;;1.20;0.85;;;32.40;45.80;;;;;;6212308;23;20608;-79
2023/06/10 12:50:11;;;;;;;1.30;0.55;;;32.60;46.00;;;;;;6212244;23;20171;-80
2023/06/10 12:52:42;;;;;;;1.35;0.90;;;32.70;46.10;;;;;;6212289;23;20177;-79
2023/06/10 12:55:12;;;;;;;0.52;0.52;;;32.80;45.80;;;;;;6213065;23;20174;-79
2023/06/10 12:57:50;;;;;;;1.30;0.70;;;32.70;44.90;;;;;;6212715;23;20233;-80
2023/06/10 13:00:20;;;;;;;1.27;0.98;;;32.80;45.20;;;;;;6212354;23;20197;-80
2023/06/10 13:02:52;;;;;;;1.42;0.93;;;32.60;43.40;;;;;;6212691;23;20168;-81
2023/06/10 13:05:56;;;;;;;;;;;;;;;;;;;;;
2023/06/10 13:08:35;;;;;;;0.60;0.50;;;32.70;43.80;;;;;;6183072;23;20167;-81
2023/06/10 13:11:21;;;;;;;;;;;;;;;;;;;;;
2023/06/10 13:13:58;;;;;;;0.70;0.70;;;32.80;43.70;;;;;;6213963;23;20189;-81
2023/06/10 13:16:31;;;;;;;1.58;1.05;;;33.00;44.10;;;;;;6213650;23;20683;-81
2023/06/10 13:19:02;;;;;;;0.60;0.60;;;33.10;44.00;;;;;;6211723;23;20163;-82
2023/06/10 13:21:31;;;;;;;2.15;1.35;;;33.20;43.70;;;;;;6211603;23;20175;-81